sensor_id;sensor_type;location;lat;lon;timestamp;pressure;altitude;pressure_sealevel;temperature
79488;BMP180;68949;53.176;18.088;2023-04-01T00:01:46;98725.00;;;
79488;BMP180;68949;53.176;18.088;2023-04-01T00:04:13;98725.40;;;
79488;BMP180;68949;53.176;18.088;2023-04-01T00:06:39;98721.00;;;
79488;BMP180;68949;53.176;18.088;2023-04-01T00:09:07;98725.40;;;
79488;BMP180;68949;53.176;18.088;2023-04-01T00:11:33;98721.20;;;
79488;BMP180;68949;53.176;18.088;2023-04-01T00:14:00;98719.20;;;
79488;BMP180;68949;53.176;18.088;2023-04-01T00:16:27;98714.60;;;
79488;BMP180;68949;53.176;18.088;2023-04-01T00:18:54;98715.40;;;
79488;BMP180;68949;53.176;18.088;2023-04-01T00:21:21;98715.00;;;
79488;BMP180;68949;53.176;18.088;2023-04-01T00:23:50;98717.20;;;
79488;BMP180;68949;53.176;18.088;2023-04-01T00:26:18;98715.60;;;
79488;BMP180;68949;53.176;18.088;2023-04-01T00:28:47;98716.20;;;
79488;BMP180;68949;53.176;18.088;2023-04-01T00:31:14;98714.80;;;
79488;BMP180;68949;53.176;18.088;2023-04-01T00:33:42;98709.80;;;
79488;BMP180;68949;53.176;18.088;2023-04-01T00:36:12;98709.60;;;
79488;BMP180;68949;53.176;18.088;2023-04-01T00:38:40;98709.00;;;
79488;BMP180;68949;53.176;18.088;2023-04-01T00:41:10;98711.80;;;
79488;BMP180;68949;53.176;18.088;2023-04-01T00:43:44;98712.00;;;
79488;BMP180;68949;53.176;18.088;2023-04-01T00:46:12;98711.60;;;
79488;BMP180;68949;53.176;18.088;2023-04-01T00:48:45;98713.00;;;
79488;BMP180;68949;53.176;18.088;2023-04-01T00:51:28;98712.60;;;
79488;BMP180;68949;53.176;18.088;2023-04-01T00:53:58;98708.00;;;
79488;BMP180;68949;53.176;18.088;2023-04-01T00:56:34;98709.40;;;
79488;BMP180;68949;53.176;18.088;2023-04-01T00:59:10;98709.40;;;
79488;BMP180;68949;53.176;18.088;2023-04-01T01:01:37;98703.00;;;
79488;BMP180;68949;53.176;18.088;2023-04-01T01:04:04;98706.60;;;
79488;BMP180;68949;53.176;18.088;2023-04-01T01:06:46;98705.20;;;
79488;BMP180;68949;53.176;18.088;2023-04-01T01:12:18;98697.20;;;
79488;BMP180;68949;53.176;18.088;2023-04-01T01:14:52;98696.60;;;
79488;BMP180;68949;53.176;18.088;2023-04-01T01:26:18;98699.20;;;
79488;BMP180;68949;53.176;18.088;2023-04-01T01:32:20;98697.60;;;
79488;BMP180;68949;53.176;18.088;2023-04-01T01:37:44;98700.40;;;
79488;BMP180;68949;53.176;18.088;2023-04-01T01:40:15;98703.60;;;
79488;BMP180;68949;53.176;18.088;2023-04-01T01:42:51;98698.00;;;
79488;BMP180;68949;53.176;18.088;2023-04-01T01:45:23;98702.60;;;
79488;BMP180;68949;53.176;18.088;2023-04-01T01:47:51;98695.80;;;
79488;BMP180;68949;53.176;18.088;2023-04-01T01:50:20;98692.20;;;
79488;BMP180;68949;53.176;18.088;2023-04-01T01:52:49;98692.80;;;
79488;BMP180;68949;53.176;18.088;2023-04-01T01:55:31;98699.20;;;
79488;BMP180;68949;53.176;18.088;2023-04-01T01:58:05;98700.00;;;
79488;BMP180;68949;53.176;18.088;2023-04-01T02:00:35;98698.80;;;
79488;BMP180;68949;53.176;18.088;2023-04-01T02:03:04;98699.00;;;
79488;BMP180;68949;53.176;18.088;2023-04-01T02:05:31;98697.80;;;
79488;BMP180;68949;53.176;18.088;2023-04-01T02:08:25;98698.60;;;
79488;BMP180;68949;53.176;18.088;2023-04-01T02:11:07;98700.00;;;
79488;BMP180;68949;53.176;18.088;2023-04-01T02:13:58;98700.00;;;
79488;BMP180;68949;53.176;18.088;2023-04-01T02:16:36;98701.60;;;
79488;BMP180;68949;53.176;18.088;2023-04-01T02:19:06;98699.40;;;
79488;BMP180;68949;53.176;18.088;2023-04-01T02:21:37;98699.80;;;
79488;BMP180;68949;53.176;18.088;2023-04-01T02:24:11;98698.00;;;
79488;BMP180;68949;53.176;18.088;2023-04-01T02:26:40;98703.80;;;
79488;BMP180;68949;53.176;18.088;2023-04-01T02:29:11;98702.80;;;
79488;BMP180;68949;53.176;18.088;2023-04-01T02:31:39;98700.80;;;
79488;BMP180;68949;53.176;18.088;2023-04-01T02:34:06;98701.40;;;
79488;BMP180;68949;53.176;18.088;2023-04-01T02:36:35;98707.60;;;
79488;BMP180;68949;53.176;18.088;2023-04-01T02:39:04;98703.80;;;
79488;BMP180;68949;53.176;18.088;2023-04-01T02:41:31;98706.00;;;
79488;BMP180;68949;53.176;18.088;2023-04-01T02:43:58;98703.60;;;
79488;BMP180;68949;53.176;18.088;2023-04-01T02:46:26;98704.40;;;
79488;BMP180;68949;53.176;18.088;2023-04-01T02:48:52;98705.80;;;
79488;BMP180;68949;53.176;18.088;2023-04-01T02:51:20;98709.80;;;
79488;BMP180;68949;53.176;18.088;2023-04-01T02:53:46;98714.40;;;
79488;BMP180;68949;53.176;18.088;2023-04-01T02:56:13;98711.40;;;
79488;BMP180;68949;53.176;18.088;2023-04-01T02:58:40;98714.00;;;
79488;BMP180;68949;53.176;18.088;2023-04-01T03:01:06;98717.20;;;
79488;BMP180;68949;53.176;18.088;2023-04-01T03:03:34;98720.80;;;
79488;BMP180;68949;53.176;18.088;2023-04-01T03:06:11;98721.20;;;
79488;BMP180;68949;53.176;18.088;2023-04-01T03:08:38;98719.60;;;
79488;BMP180;68949;53.176;18.088;2023-04-01T03:11:06;98728.20;;;
79488;BMP180;68949;53.176;18.088;2023-04-01T03:13:34;98732.00;;;
79488;BMP180;68949;53.176;18.088;2023-04-01T03:16:01;98727.20;;;
79488;BMP180;68949;53.176;18.088;2023-04-01T03:18:28;98726.00;;;
79488;BMP180;68949;53.176;18.088;2023-04-01T03:20:55;98729.60;;;
79488;BMP180;68949;53.176;18.088;2023-04-01T03:23:21;98727.60;;;
79488;BMP180;68949;53.176;18.088;2023-04-01T03:25:51;98730.20;;;
79488;BMP180;68949;53.176;18.088;2023-04-01T03:28:17;98729.00;;;
79488;BMP180;68949;53.176;18.088;2023-04-01T03:30:44;98726.00;;;
79488;BMP180;68949;53.176;18.088;2023-04-01T03:33:11;98727.00;;;
79488;BMP180;68949;53.176;18.088;2023-04-01T03:35:38;98729.80;;;
79488;BMP180;68949;53.176;18.088;2023-04-01T03:38:06;98733.20;;;
79488;BMP180;68949;53.176;18.088;2023-04-01T03:40:32;98742.20;;;
79488;BMP180;68949;53.176;18.088;2023-04-01T03:43:00;98738.60;;;
79488;BMP180;68949;53.176;18.088;2023-04-01T03:45:27;98738.40;;;
79488;BMP180;68949;53.176;18.088;2023-04-01T03:47:53;98748.60;;;
79488;BMP180;68949;53.176;18.088;2023-04-01T03:50:20;98748.00;;;
79488;BMP180;68949;53.176;18.088;2023-04-01T03:52:47;98744.00;;;
79488;BMP180;68949;53.176;18.088;2023-04-01T03:55:14;98747.40;;;
79488;BMP180;68949;53.176;18.088;2023-04-01T03:57:42;98749.80;;;
79488;BMP180;68949;53.176;18.088;2023-04-01T04:00:14;98754.20;;;
79488;BMP180;68949;53.176;18.088;2023-04-01T04:02:43;98752.60;;;
79488;BMP180;68949;53.176;18.088;2023-04-01T04:05:10;98749.00;;;
79488;BMP180;68949;53.176;18.088;2023-04-01T04:07:37;98754.60;;;
79488;BMP180;68949;53.176;18.088;2023-04-01T04:10:07;98760.00;;;
79488;BMP180;68949;53.176;18.088;2023-04-01T04:12:34;98758.80;;;
79488;BMP180;68949;53.176;18.088;2023-04-01T04:15:01;98769.20;;;
79488;BMP180;68949;53.176;18.088;2023-04-01T04:17:27;98772.00;;;
79488;BMP180;68949;53.176;18.088;2023-04-01T04:19:54;98774.80;;;
79488;BMP180;68949;53.176;18.088;2023-04-01T04:22:21;98775.00;;;
79488;BMP180;68949;53.176;18.088;2023-04-01T04:24:48;98780.00;;;
79488;BMP180;68949;53.176;18.088;2023-04-01T04:27:14;98778.00;;;
79488;BMP180;68949;53.176;18.088;2023-04-01T04:29:48;98779.40;;;
79488;BMP180;68949;53.176;18.088;2023-04-01T04:32:15;98780.60;;;
79488;BMP180;68949;53.176;18.088;2023-04-01T04:34:41;98782.00;;;
79488;BMP180;68949;53.176;18.088;2023-04-01T04:37:08;98788.60;;;
79488;BMP180;68949;53.176;18.088;2023-04-01T04:39:36;98784.80;;;
79488;BMP180;68949;53.176;18.088;2023-04-01T04:42:03;98797.00;;;
79488;BMP180;68949;53.176;18.088;2023-04-01T04:44:29;98796.40;;;
79488;BMP180;68949;53.176;18.088;2023-04-01T04:46:57;98799.60;;;
79488;BMP180;68949;53.176;18.088;2023-04-01T04:49:23;98802.80;;;
79488;BMP180;68949;53.176;18.088;2023-04-01T04:51:51;98799.60;;;
79488;BMP180;68949;53.176;18.088;2023-04-01T04:54:19;98798.20;;;
79488;BMP180;68949;53.176;18.088;2023-04-01T04:56:57;98801.20;;;
79488;BMP180;68949;53.176;18.088;2023-04-01T04:59:25;98802.40;;;
79488;BMP180;68949;53.176;18.088;2023-04-01T05:02:12;98807.60;;;
79488;BMP180;68949;53.176;18.088;2023-04-01T05:04:38;98808.40;;;
79488;BMP180;68949;53.176;18.088;2023-04-01T05:07:07;98815.60;;;
79488;BMP180;68949;53.176;18.088;2023-04-01T05:09:34;98809.80;;;
79488;BMP180;68949;53.176;18.088;2023-04-01T05:12:00;98812.60;;;
79488;BMP180;68949;53.176;18.088;2023-04-01T05:14:30;98815.20;;;
79488;BMP180;68949;53.176;18.088;2023-04-01T05:17:12;98815.00;;;
79488;BMP180;68949;53.176;18.088;2023-04-01T05:19:39;98816.60;;;
79488;BMP180;68949;53.176;18.088;2023-04-01T05:22:06;98824.60;;;
79488;BMP180;68949;53.176;18.088;2023-04-01T05:24:33;98828.20;;;
79488;BMP180;68949;53.176;18.088;2023-04-01T05:27:00;98828.00;;;
79488;BMP180;68949;53.176;18.088;2023-04-01T05:29:27;98829.20;;;
79488;BMP180;68949;53.176;18.088;2023-04-01T05:31:59;98828.20;;;
79488;BMP180;68949;53.176;18.088;2023-04-01T05:34:26;98832.40;;;
79488;BMP180;68949;53.176;18.088;2023-04-01T05:36:53;98831.00;;;
79488;BMP180;68949;53.176;18.088;2023-04-01T05:39:19;98831.20;;;
79488;BMP180;68949;53.176;18.088;2023-04-01T05:41:47;98834.00;;;
79488;BMP180;68949;53.176;18.088;2023-04-01T05:44:14;98834.00;;;
79488;BMP180;68949;53.176;18.088;2023-04-01T05:46:41;98837.80;;;
79488;BMP180;68949;53.176;18.088;2023-04-01T05:49:22;98833.80;;;
79488;BMP180;68949;53.176;18.088;2023-04-01T05:51:50;98838.00;;;
79488;BMP180;68949;53.176;18.088;2023-04-01T05:54:19;98835.00;;;
79488;BMP180;68949;53.176;18.088;2023-04-01T05:56:46;98834.60;;;
79488;BMP180;68949;53.176;18.088;2023-04-01T05:59:13;98839.80;;;
79488;BMP180;68949;53.176;18.088;2023-04-01T06:01:42;98837.80;;;
79488;BMP180;68949;53.176;18.088;2023-04-01T06:04:17;98842.00;;;
79488;BMP180;68949;53.176;18.088;2023-04-01T06:06:45;98844.60;;;
79488;BMP180;68949;53.176;18.088;2023-04-01T06:09:21;98845.60;;;
79488;BMP180;68949;53.176;18.088;2023-04-01T06:20:50;98851.40;;;
79488;BMP180;68949;53.176;18.088;2023-04-01T06:23:41;98862.00;;;
79488;BMP180;68949;53.176;18.088;2023-04-01T06:26:59;98855.80;;;
79488;BMP180;68949;53.176;18.088;2023-04-01T06:39:23;98867.80;;;
79488;BMP180;68949;53.176;18.088;2023-04-01T06:45:30;98872.00;;;
79488;BMP180;68949;53.176;18.088;2023-04-01T06:48:38;98879.40;;;
79488;BMP180;68949;53.176;18.088;2023-04-01T06:56:10;98887.60;;;
79488;BMP180;68949;53.176;18.088;2023-04-01T06:58:30;98883.60;;;
79488;BMP180;68949;53.176;18.088;2023-04-01T07:01:04;98884.00;;;
79488;BMP180;68949;53.176;18.088;2023-04-01T07:03:40;98887.60;;;
79488;BMP180;68949;53.176;18.088;2023-04-01T07:06:23;98889.00;;;
79488;BMP180;68949;53.176;18.088;2023-04-01T07:08:56;98893.00;;;
79488;BMP180;68949;53.176;18.088;2023-04-01T07:11:34;98900.40;;;
79488;BMP180;68949;53.176;18.088;2023-04-01T07:14:38;98895.60;;;
79488;BMP180;68949;53.176;18.088;2023-04-01T07:17:36;98901.80;;;
79488;BMP180;68949;53.176;18.088;2023-04-01T07:20:20;98904.60;;;
79488;BMP180;68949;53.176;18.088;2023-04-01T07:22:54;98913.00;;;
79488;BMP180;68949;53.176;18.088;2023-04-01T07:25:55;98918.80;;;
79488;BMP180;68949;53.176;18.088;2023-04-01T07:28:57;98913.40;;;
79488;BMP180;68949;53.176;18.088;2023-04-01T07:32:09;98915.40;;;
79488;BMP180;68949;53.176;18.088;2023-04-01T07:34:45;98914.80;;;
79488;BMP180;68949;53.176;18.088;2023-04-01T07:49:51;98938.60;;;
79488;BMP180;68949;53.176;18.088;2023-04-01T07:52:33;98948.00;;;
79488;BMP180;68949;53.176;18.088;2023-04-01T08:00:40;98951.20;;;
79488;BMP180;68949;53.176;18.088;2023-04-01T08:03:38;98957.40;;;
79488;BMP180;68949;53.176;18.088;2023-04-01T08:06:32;98958.60;;;
79488;BMP180;68949;53.176;18.088;2023-04-01T08:09:53;98958.80;;;
79488;BMP180;68949;53.176;18.088;2023-04-01T08:12:57;98963.80;;;
79488;BMP180;68949;53.176;18.088;2023-04-01T08:22:27;98982.40;;;
79488;BMP180;68949;53.176;18.088;2023-04-01T08:25:02;98986.40;;;
79488;BMP180;68949;53.176;18.088;2023-04-01T08:27:39;98988.00;;;
79488;BMP180;68949;53.176;18.088;2023-04-01T08:30:18;98993.40;;;
79488;BMP180;68949;53.176;18.088;2023-04-01T08:33:12;98987.20;;;
79488;BMP180;68949;53.176;18.088;2023-04-01T08:36:08;98996.20;;;
79488;BMP180;68949;53.176;18.088;2023-04-01T08:38:49;98989.60;;;
79488;BMP180;68949;53.176;18.088;2023-04-01T08:45:43;98995.20;;;
79488;BMP180;68949;53.176;18.088;2023-04-01T08:51:17;98996.60;;;
79488;BMP180;68949;53.176;18.088;2023-04-01T08:56:46;99007.00;;;
79488;BMP180;68949;53.176;18.088;2023-04-01T09:27:13;99031.40;;;
79488;BMP180;68949;53.176;18.088;2023-04-01T09:30:00;99040.00;;;
79488;BMP180;68949;53.176;18.088;2023-04-01T09:32:47;99047.40;;;
79488;BMP180;68949;53.176;18.088;2023-04-01T09:41:30;99052.00;;;
79488;BMP180;68949;53.176;18.088;2023-04-01T09:44:20;99061.00;;;
79488;BMP180;68949;53.176;18.088;2023-04-01T09:47:14;99060.00;;;
79488;BMP180;68949;53.176;18.088;2023-04-01T09:50:35;99062.40;;;
79488;BMP180;68949;53.176;18.088;2023-04-01T09:56:47;99070.20;;;
79488;BMP180;68949;53.176;18.088;2023-04-01T10:05:57;99080.80;;;
79488;BMP180;68949;53.176;18.088;2023-04-01T10:20:22;99092.60;;;
79488;BMP180;68949;53.176;18.088;2023-04-01T10:23:08;99095.80;;;
79488;BMP180;68949;53.176;18.088;2023-04-01T10:28:57;99089.40;;;
79488;BMP180;68949;53.176;18.088;2023-04-01T10:35:02;99102.20;;;
79488;BMP180;68949;53.176;18.088;2023-04-01T10:41:28;99098.80;;;
79488;BMP180;68949;53.176;18.088;2023-04-01T10:48:18;99099.20;;;
79488;BMP180;68949;53.176;18.088;2023-04-01T10:51:17;99104.80;;;
79488;BMP180;68949;53.176;18.088;2023-04-01T10:54:13;99111.00;;;
79488;BMP180;68949;53.176;18.088;2023-04-01T11:01:20;99111.20;;;
79488;BMP180;68949;53.176;18.088;2023-04-01T11:24:14;99141.60;;;
79488;BMP180;68949;53.176;18.088;2023-04-01T11:26:51;99138.60;;;
79488;BMP180;68949;53.176;18.088;2023-04-01T11:29:39;99137.20;;;
79488;BMP180;68949;53.176;18.088;2023-04-01T11:35:33;99152.80;;;
79488;BMP180;68949;53.176;18.088;2023-04-01T11:38:26;99157.20;;;
79488;BMP180;68949;53.176;18.088;2023-04-01T11:44:19;99159.80;;;
79488;BMP180;68949;53.176;18.088;2023-04-01T11:47:33;99158.40;;;
79488;BMP180;68949;53.176;18.088;2023-04-01T11:53:44;99162.80;;;
79488;BMP180;68949;53.176;18.088;2023-04-01T11:56:29;99164.20;;;
79488;BMP180;68949;53.176;18.088;2023-04-01T12:01:53;99172.60;;;
79488;BMP180;68949;53.176;18.088;2023-04-01T12:04:54;99172.00;;;
79488;BMP180;68949;53.176;18.088;2023-04-01T12:14:02;99176.00;;;
79488;BMP180;68949;53.176;18.088;2023-04-01T12:19:56;99182.80;;;
79488;BMP180;68949;53.176;18.088;2023-04-01T12:22:46;99184.40;;;
79488;BMP180;68949;53.176;18.088;2023-04-01T12:25:34;99188.20;;;
79488;BMP180;68949;53.176;18.088;2023-04-01T12:33:51;99192.60;;;
79488;BMP180;68949;53.176;18.088;2023-04-01T12:39:29;99197.20;;;
79488;BMP180;68949;53.176;18.088;2023-04-01T12:49:17;99207.20;;;
79488;BMP180;68949;53.176;18.088;2023-04-01T12:52:13;99204.20;;;
79488;BMP180;68949;53.176;18.088;2023-04-01T12:55:36;99212.60;;;
79488;BMP180;68949;53.176;18.088;2023-04-01T12:58:37;99215.60;;;
79488;BMP180;68949;53.176;18.088;2023-04-01T13:01:27;99210.60;;;
79488;BMP180;68949;53.176;18.088;2023-04-01T13:04:32;99213.80;;;
79488;BMP180;68949;53.176;18.088;2023-04-01T13:16:12;99233.60;;;
79488;BMP180;68949;53.176;18.088;2023-04-01T13:19:12;99232.80;;;
79488;BMP180;68949;53.176;18.088;2023-04-01T13:21:58;99242.40;;;
79488;BMP180;68949;53.176;18.088;2023-04-01T13:24:59;99244.80;;;
79488;BMP180;68949;53.176;18.088;2023-04-01T13:27:43;99247.60;;;
79488;BMP180;68949;53.176;18.088;2023-04-01T13:36:10;99250.60;;;
79488;BMP180;68949;53.176;18.088;2023-04-01T13:39:47;99256.20;;;
79488;BMP180;68949;53.176;18.088;2023-04-01T13:42:23;99255.40;;;
79488;BMP180;68949;53.176;18.088;2023-04-01T13:51:41;99257.20;;;
79488;BMP180;68949;53.176;18.088;2023-04-01T14:03:44;99280.20;;;
79488;BMP180;68949;53.176;18.088;2023-04-01T14:06:52;99281.60;;;
79488;BMP180;68949;53.176;18.088;2023-04-01T14:09:42;99284.40;;;
79488;BMP180;68949;53.176;18.088;2023-04-01T14:12:35;99286.80;;;
79488;BMP180;68949;53.176;18.088;2023-04-01T14:15:33;99294.60;;;
79488;BMP180;68949;53.176;18.088;2023-04-01T14:18:30;99294.00;;;
79488;BMP180;68949;53.176;18.088;2023-04-01T14:27:24;99308.00;;;
79488;BMP180;68949;53.176;18.088;2023-04-01T14:39:04;99317.00;;;
79488;BMP180;68949;53.176;18.088;2023-04-01T14:48:13;99325.60;;;
79488;BMP180;68949;53.176;18.088;2023-04-01T14:50:55;99330.80;;;
79488;BMP180;68949;53.176;18.088;2023-04-01T14:55:57;99342.00;;;
79488;BMP180;68949;53.176;18.088;2023-04-01T14:58:47;99341.40;;;
79488;BMP180;68949;53.176;18.088;2023-04-01T15:24:00;99377.40;;;
79488;BMP180;68949;53.176;18.088;2023-04-01T15:26:49;99382.60;;;
79488;BMP180;68949;53.176;18.088;2023-04-01T15:43:45;99409.20;;;
79488;BMP180;68949;53.176;18.088;2023-04-01T15:46:31;99414.20;;;
79488;BMP180;68949;53.176;18.088;2023-04-01T15:49:42;99416.40;;;
79488;BMP180;68949;53.176;18.088;2023-04-01T15:52:23;99422.20;;;
79488;BMP180;68949;53.176;18.088;2023-04-01T16:01:18;99429.60;;;
79488;BMP180;68949;53.176;18.088;2023-04-01T16:10:36;99443.60;;;
79488;BMP180;68949;53.176;18.088;2023-04-01T16:13:46;99453.60;;;
79488;BMP180;68949;53.176;18.088;2023-04-01T16:22:21;99471.80;;;
79488;BMP180;68949;53.176;18.088;2023-04-01T16:36:54;99487.20;;;
79488;BMP180;68949;53.176;18.088;2023-04-01T16:42:51;99501.20;;;
79488;BMP180;68949;53.176;18.088;2023-04-01T16:48:17;99515.00;;;
79488;BMP180;68949;53.176;18.088;2023-04-01T16:50:55;99527.00;;;
79488;BMP180;68949;53.176;18.088;2023-04-01T16:54:13;99520.20;;;
79488;BMP180;68949;53.176;18.088;2023-04-01T16:59:35;99520.80;;;
79488;BMP180;68949;53.176;18.088;2023-04-01T17:02:12;99526.60;;;
79488;BMP180;68949;53.176;18.088;2023-04-01T17:04:54;99533.40;;;
79488;BMP180;68949;53.176;18.088;2023-04-01T17:10:50;99534.80;;;
79488;BMP180;68949;53.176;18.088;2023-04-01T17:13:35;99539.80;;;
79488;BMP180;68949;53.176;18.088;2023-04-01T17:29:46;99551.80;;;
79488;BMP180;68949;53.176;18.088;2023-04-01T17:35:33;99567.60;;;
79488;BMP180;68949;53.176;18.088;2023-04-01T17:41:06;99574.80;;;
79488;BMP180;68949;53.176;18.088;2023-04-01T17:47:08;99593.40;;;
79488;BMP180;68949;53.176;18.088;2023-04-01T17:50:30;99596.80;;;
79488;BMP180;68949;53.176;18.088;2023-04-01T17:58:34;99612.20;;;
79488;BMP180;68949;53.176;18.088;2023-04-01T18:01:17;99610.00;;;
79488;BMP180;68949;53.176;18.088;2023-04-01T18:07:22;99627.40;;;
79488;BMP180;68949;53.176;18.088;2023-04-01T18:10:40;99626.80;;;
79488;BMP180;68949;53.176;18.088;2023-04-01T18:19:03;99643.00;;;
79488;BMP180;68949;53.176;18.088;2023-04-01T18:26:43;99648.80;;;
79488;BMP180;68949;53.176;18.088;2023-04-01T18:29:34;99646.60;;;
79488;BMP180;68949;53.176;18.088;2023-04-01T18:32:37;99647.60;;;
79488;BMP180;68949;53.176;18.088;2023-04-01T18:43:42;99667.60;;;
79488;BMP180;68949;53.176;18.088;2023-04-01T18:46:30;99671.20;;;
79488;BMP180;68949;53.176;18.088;2023-04-01T18:49:16;99675.00;;;
79488;BMP180;68949;53.176;18.088;2023-04-01T18:51:59;99674.20;;;
79488;BMP180;68949;53.176;18.088;2023-04-01T18:54:41;99690.40;;;
79488;BMP180;68949;53.176;18.088;2023-04-01T18:57:18;99695.20;;;
79488;BMP180;68949;53.176;18.088;2023-04-01T19:00:08;99700.40;;;
79488;BMP180;68949;53.176;18.088;2023-04-01T19:02:50;99707.20;;;
79488;BMP180;68949;53.176;18.088;2023-04-01T19:05:30;99708.40;;;
79488;BMP180;68949;53.176;18.088;2023-04-01T19:08:47;99712.60;;;
79488;BMP180;68949;53.176;18.088;2023-04-01T19:12:02;99717.80;;;
79488;BMP180;68949;53.176;18.088;2023-04-01T19:15:09;99716.40;;;
79488;BMP180;68949;53.176;18.088;2023-04-01T19:18:07;99723.00;;;
79488;BMP180;68949;53.176;18.088;2023-04-01T19:20:53;99724.60;;;
79488;BMP180;68949;53.176;18.088;2023-04-01T19:24:19;99730.60;;;
79488;BMP180;68949;53.176;18.088;2023-04-01T19:30:02;99744.60;;;
79488;BMP180;68949;53.176;18.088;2023-04-01T19:33:12;99753.20;;;
79488;BMP180;68949;53.176;18.088;2023-04-01T19:38:40;99763.80;;;
79488;BMP180;68949;53.176;18.088;2023-04-01T19:41:34;99769.80;;;
79488;BMP180;68949;53.176;18.088;2023-04-01T19:52:55;99787.80;;;
79488;BMP180;68949;53.176;18.088;2023-04-01T19:58:20;99794.00;;;
79488;BMP180;68949;53.176;18.088;2023-04-01T20:00:52;99793.20;;;
79488;BMP180;68949;53.176;18.088;2023-04-01T20:03:43;99795.00;;;
79488;BMP180;68949;53.176;18.088;2023-04-01T20:06:42;99792.60;;;
79488;BMP180;68949;53.176;18.088;2023-04-01T20:17:57;99810.60;;;
79488;BMP180;68949;53.176;18.088;2023-04-01T20:20:28;99819.80;;;
79488;BMP180;68949;53.176;18.088;2023-04-01T20:25:47;99816.60;;;
79488;BMP180;68949;53.176;18.088;2023-04-01T20:45:01;99825.60;;;
79488;BMP180;68949;53.176;18.088;2023-04-01T20:50:50;99832.80;;;
79488;BMP180;68949;53.176;18.088;2023-04-01T20:53:34;99828.00;;;
79488;BMP180;68949;53.176;18.088;2023-04-01T20:59:14;99831.80;;;
79488;BMP180;68949;53.176;18.088;2023-04-01T21:02:20;99838.60;;;
79488;BMP180;68949;53.176;18.088;2023-04-01T21:17:17;99855.00;;;
79488;BMP180;68949;53.176;18.088;2023-04-01T21:25:27;99876.60;;;
79488;BMP180;68949;53.176;18.088;2023-04-01T21:31:33;99869.80;;;
79488;BMP180;68949;53.176;18.088;2023-04-01T21:36:46;99882.60;;;
79488;BMP180;68949;53.176;18.088;2023-04-01T21:45:36;99889.40;;;
79488;BMP180;68949;53.176;18.088;2023-04-01T22:00:14;99896.00;;;
79488;BMP180;68949;53.176;18.088;2023-04-01T22:03:17;99908.00;;;
79488;BMP180;68949;53.176;18.088;2023-04-01T22:06:14;99905.60;;;
79488;BMP180;68949;53.176;18.088;2023-04-01T22:08:56;99905.40;;;
79488;BMP180;68949;53.176;18.088;2023-04-01T22:15:22;99909.20;;;
79488;BMP180;68949;53.176;18.088;2023-04-01T22:18:21;99912.40;;;
79488;BMP180;68949;53.176;18.088;2023-04-01T22:21:03;99912.80;;;
79488;BMP180;68949;53.176;18.088;2023-04-01T22:32:01;99924.80;;;
79488;BMP180;68949;53.176;18.088;2023-04-01T22:35:01;99932.00;;;
79488;BMP180;68949;53.176;18.088;2023-04-01T22:38:03;99934.60;;;
79488;BMP180;68949;53.176;18.088;2023-04-01T22:41:00;99935.40;;;
79488;BMP180;68949;53.176;18.088;2023-04-01T22:43:38;99931.40;;;
79488;BMP180;68949;53.176;18.088;2023-04-01T22:46:35;99930.20;;;
79488;BMP180;68949;53.176;18.088;2023-04-01T22:49:18;99933.60;;;
79488;BMP180;68949;53.176;18.088;2023-04-01T22:52:40;99936.80;;;
79488;BMP180;68949;53.176;18.088;2023-04-01T22:55:22;99939.40;;;
79488;BMP180;68949;53.176;18.088;2023-04-01T22:58:11;99941.80;;;
79488;BMP180;68949;53.176;18.088;2023-04-01T23:00:48;99946.20;;;
79488;BMP180;68949;53.176;18.088;2023-04-01T23:03:30;99947.40;;;
79488;BMP180;68949;53.176;18.088;2023-04-01T23:06:01;99952.20;;;
79488;BMP180;68949;53.176;18.088;2023-04-01T23:11:39;99956.00;;;
79488;BMP180;68949;53.176;18.088;2023-04-01T23:23:42;99962.40;;;
79488;BMP180;68949;53.176;18.088;2023-04-01T23:26:25;99966.20;;;
79488;BMP180;68949;53.176;18.088;2023-04-01T23:28:58;99966.40;;;
79488;BMP180;68949;53.176;18.088;2023-04-01T23:31:38;99960.80;;;
79488;BMP180;68949;53.176;18.088;2023-04-01T23:37:05;99966.20;;;
79488;BMP180;68949;53.176;18.088;2023-04-01T23:39:36;99973.80;;;
79488;BMP180;68949;53.176;18.088;2023-04-01T23:42:17;99976.00;;;
79488;BMP180;68949;53.176;18.088;2023-04-01T23:44:48;99980.80;;;
79488;BMP180;68949;53.176;18.088;2023-04-01T23:47:21;99982.00;;;
79488;BMP180;68949;53.176;18.088;2023-04-01T23:49:55;99987.80;;;
79488;BMP180;68949;53.176;18.088;2023-04-01T23:52:34;99989.40;;;
79488;BMP180;68949;53.176;18.088;2023-04-01T23:57:41;99995.00;;;
